Austin, Texas
Current Conditions -  °F | °C
As of 12:51 PM on Thursday 27 Nov 2014 (Local Time) from KATT Reporting Station
Clear Clear  
Wind Chill: 60°   Ceiling: Unl
Heat Index: 60°   Visibility: 10mi
Dew Point: 28°   Wind: 5mph
Humidity: 30%   Direction: NA
Pressure: 30.48"   Gusts: NA
Location:  30.27°N, 97.74°W
Report Text: KATT 271851Z AUTO VRB04KT 10SM CLR 16/M02 A3048 RMK AO2 SLP320 T01561022
Loading
Personal Weather Stations






























Interactive Weather Map New forecast layout! Learn more

10-Day Weather Forecast

Advertisements
Track Severe Weather on mobile